createdAt,value
2023-03-20T00:02:24.533Z,9.43
2023-03-20T00:04:51.880Z,10.87
2023-03-20T00:07:19.007Z,9.77
2023-03-20T00:09:46.182Z,9.10
2023-03-20T00:12:25.123Z,8.97
2023-03-20T00:14:52.386Z,10.27
2023-03-20T00:17:21.472Z,8.47
2023-03-20T00:19:51.352Z,12.10
2023-03-20T00:22:18.416Z,11.40
2023-03-20T00:24:46.035Z,8.37
2023-03-20T00:27:17.627Z,13.23
2023-03-20T00:29:44.889Z,11.50
2023-03-20T00:32:14.243Z,9.10
2023-03-20T00:34:41.782Z,9.47
2023-03-20T00:37:11.679Z,12.93
2023-03-20T00:39:39.061Z,10.60
2023-03-20T00:42:13.362Z,8.77
2023-03-20T00:44:56.110Z,9.47
2023-03-20T00:47:24.514Z,9.83
2023-03-20T00:49:54.185Z,7.53
2023-03-20T00:52:22.488Z,9.83
2023-03-20T00:54:49.566Z,9.37
2023-03-20T00:57:37.853Z,11.57
2023-03-20T01:00:21.338Z,11.03
2023-03-20T01:02:48.949Z,12.90
2023-03-20T01:05:16.786Z,14.23
2023-03-20T01:07:45.459Z,12.33
2023-03-20T01:10:13.594Z,13.57
2023-03-20T01:12:43.075Z,13.10
2023-03-20T01:15:34.096Z,14.47
2023-03-20T01:18:01.365Z,13.50
2023-03-20T01:20:32.311Z,13.57
2023-03-20T01:22:59.499Z,13.77
2023-03-20T01:25:26.662Z,13.53
2023-03-20T01:27:54.981Z,10.33
2023-03-20T01:30:30.588Z,17.67
2023-03-20T01:32:59.908Z,16.53
2023-03-20T01:35:29.023Z,12.77
2023-03-20T01:37:56.382Z,17.93
2023-03-20T01:40:31.132Z,21.17
2023-03-20T01:42:58.561Z,15.20
2023-03-20T01:45:36.866Z,17.60
2023-03-20T01:48:17.798Z,19.77
2023-03-20T01:50:44.817Z,18.83
2023-03-20T01:53:25.284Z,14.53
2023-03-20T01:55:56.997Z,14.90
2023-03-20T01:58:41.652Z,11.90
2023-03-20T02:01:13.541Z,12.53
2023-03-20T02:03:49.880Z,7.57
2023-03-20T02:06:18.789Z,9.63
2023-03-20T02:08:50.986Z,7.90
2023-03-20T02:11:23.505Z,8.20
2023-03-20T02:13:55.490Z,14.40
2023-03-20T02:16:22.622Z,11.20
2023-03-20T02:18:52.824Z,15.67
2023-03-20T02:22:33.860Z,11.27
2023-03-20T02:25:57.559Z,12.83
2023-03-20T02:28:52.265Z,10.07
2023-03-20T02:31:57.899Z,9.37
2023-03-20T02:34:52.644Z,8.97
2023-03-20T02:37:48.015Z,13.20
2023-03-20T02:40:30.813Z,16.50
2023-03-20T02:43:29.961Z,16.03
2023-03-20T02:46:35.763Z,15.40
2023-03-20T02:49:15.540Z,15.70
2023-03-20T02:52:02.286Z,14.63
2023-03-20T02:54:49.410Z,12.97
2023-03-20T02:57:21.771Z,18.03
2023-03-20T03:00:33.447Z,17.13
2023-03-20T03:03:34.192Z,15.23
2023-03-20T03:06:34.442Z,15.93
2023-03-20T03:09:17.736Z,19.73
2023-03-20T03:11:54.147Z,15.13
2023-03-20T03:14:44.758Z,14.47
2023-03-20T03:17:15.297Z,14.87
2023-03-20T03:19:49.391Z,13.60
2023-03-20T03:22:17.911Z,16.40
2023-03-20T03:24:50.037Z,11.37
2023-03-20T03:27:40.987Z,16.30
2023-03-20T03:30:31.147Z,17.03
2023-03-20T03:33:28.232Z,15.90
2023-03-20T03:36:51.706Z,16.63
2023-03-20T03:39:31.070Z,16.17
2023-03-20T03:42:24.756Z,14.10
2023-03-20T03:45:17.219Z,14.10
2023-03-20T03:48:15.590Z,13.60
2023-03-20T03:50:53.176Z,16.43
2023-03-20T03:53:34.474Z,13.30
2023-03-20T03:56:12.245Z,13.13
2023-03-20T03:58:52.253Z,16.00
2023-03-20T04:01:22.742Z,14.87
2023-03-20T04:03:57.514Z,16.47
2023-03-20T04:06:27.267Z,11.40
2023-03-20T04:08:54.480Z,16.53
2023-03-20T04:11:29.041Z,14.13
2023-03-20T04:13:56.604Z,14.90
2023-03-20T04:16:25.770Z,14.90
2023-03-20T04:18:53.433Z,12.60
2023-03-20T04:21:20.450Z,17.67
2023-03-20T04:23:47.583Z,14.77
2023-03-20T04:26:14.779Z,14.23
2023-03-20T04:28:42.113Z,14.53
2023-03-20T04:31:09.272Z,17.37
2023-03-20T04:33:36.396Z,17.60
2023-03-20T04:36:03.915Z,19.00
2023-03-20T04:38:31.311Z,15.63
2023-03-20T04:41:01.354Z,14.40
2023-03-20T04:43:28.533Z,17.27
2023-03-20T04:45:56.341Z,18.37
2023-03-20T04:48:23.949Z,14.37
2023-03-20T04:50:51.293Z,11.90
2023-03-20T04:53:18.936Z,12.33
2023-03-20T04:55:46.162Z,13.97
2023-03-20T04:58:13.470Z,16.40
2023-03-20T05:00:40.776Z,20.20
2023-03-20T05:03:07.868Z,15.33
2023-03-20T05:05:38.056Z,14.90
2023-03-20T05:08:06.417Z,15.40
2023-03-20T05:10:33.777Z,16.50
2023-03-20T05:13:01.117Z,15.67
2023-03-20T05:15:28.455Z,17.40
2023-03-20T05:17:56.000Z,20.53
2023-03-20T05:20:23.096Z,14.63
2023-03-20T05:22:52.039Z,13.80
2023-03-20T05:25:22.454Z,21.93
2023-03-20T05:27:49.485Z,20.47
2023-03-20T05:30:17.037Z,18.87
2023-03-20T05:32:44.186Z,19.03
2023-03-20T05:35:12.412Z,22.50
2023-03-20T05:37:40.448Z,22.53
2023-03-20T05:40:11.101Z,18.53
2023-03-20T05:42:38.375Z,18.47
2023-03-20T05:45:09.981Z,16.23
2023-03-20T05:47:37.079Z,15.93
2023-03-20T05:50:05.650Z,20.07
2023-03-20T05:52:32.723Z,22.47
2023-03-20T05:54:59.850Z,21.77
2023-03-20T05:57:32.676Z,17.93
2023-03-20T06:00:03.079Z,21.23
2023-03-20T06:02:30.159Z,18.90
2023-03-20T06:04:57.204Z,20.63
2023-03-20T06:07:24.391Z,20.27
2023-03-20T06:09:51.972Z,17.83
2023-03-20T06:12:19.016Z,22.67
2023-03-20T06:14:46.091Z,20.33
2023-03-20T06:17:13.399Z,16.60
2023-03-20T06:19:41.255Z,23.57
2023-03-20T06:22:08.764Z,20.17
2023-03-20T06:24:36.008Z,21.63
2023-03-20T06:27:03.110Z,18.20
2023-03-20T06:29:30.332Z,23.67
2023-03-20T06:31:57.736Z,18.10
2023-03-20T06:34:24.788Z,21.10
2023-03-20T06:36:51.874Z,21.60
2023-03-20T06:39:19.010Z,26.57
2023-03-20T06:41:58.576Z,30.47
2023-03-20T06:44:26.951Z,37.17
2023-03-20T06:46:54.466Z,35.93
2023-03-20T06:49:24.364Z,38.87
2023-03-20T06:51:51.408Z,44.33
2023-03-20T06:54:18.458Z,50.23
2023-03-20T06:56:45.554Z,47.37
2023-03-20T06:59:12.784Z,49.60
2023-03-20T07:01:40.405Z,49.20
2023-03-20T07:04:08.590Z,48.40
2023-03-20T07:06:37.019Z,58.43
2023-03-20T07:09:05.371Z,60.83
2023-03-20T07:11:34.206Z,60.90
2023-03-20T07:14:01.914Z,55.23
2023-03-20T07:16:29.073Z,58.97
2023-03-20T07:18:56.115Z,58.40
2023-03-20T07:21:23.818Z,61.53
2023-03-20T07:23:50.953Z,61.03
2023-03-20T07:26:18.060Z,64.50
2023-03-20T07:28:47.889Z,74.17
2023-03-20T07:31:26.345Z,70.03
2023-03-20T07:33:53.662Z,67.23
2023-03-20T07:36:21.241Z,75.60
2023-03-20T07:38:48.488Z,56.50
2023-03-20T07:41:15.578Z,68.80
2023-03-20T07:43:44.723Z,64.23
2023-03-20T07:46:12.039Z,68.00
2023-03-20T07:48:39.137Z,60.50
2023-03-20T07:51:06.827Z,60.20
2023-03-20T07:53:33.896Z,61.63
2023-03-20T07:56:01.316Z,57.40
2023-03-20T07:58:28.336Z,63.63
2023-03-20T08:00:58.710Z,52.97
2023-03-20T08:03:26.036Z,50.77
2023-03-20T08:05:54.010Z,49.73
2023-03-20T08:08:21.704Z,47.77
2023-03-20T08:10:48.829Z,42.60
2023-03-20T08:13:16.382Z,41.10
2023-03-20T08:15:43.811Z,37.00
2023-03-20T08:18:12.117Z,41.07
2023-03-20T08:20:39.236Z,38.73
2023-03-20T08:23:06.404Z,41.40
2023-03-20T08:25:34.146Z,39.67
2023-03-20T08:28:01.898Z,44.10
2023-03-20T08:30:31.437Z,40.47
2023-03-20T08:32:59.089Z,43.97
2023-03-20T08:35:33.346Z,40.80
2023-03-20T08:38:01.884Z,46.33
2023-03-20T08:40:32.221Z,52.40
2023-03-20T08:42:59.609Z,41.10
2023-03-20T08:45:26.735Z,40.53
2023-03-20T08:47:54.955Z,39.40
2023-03-20T08:50:22.525Z,41.77
2023-03-20T08:52:49.612Z,39.63
2023-03-20T08:55:17.706Z,35.77
2023-03-20T08:57:44.808Z,35.27
2023-03-20T09:00:15.933Z,39.63
2023-03-20T09:02:43.856Z,32.33
2023-03-20T09:05:11.907Z,39.60
2023-03-20T09:07:39.299Z,31.07
2023-03-20T09:10:07.604Z,28.67
2023-03-20T09:12:38.023Z,28.77
2023-03-20T09:15:10.083Z,30.27
2023-03-20T09:17:37.163Z,28.07
2023-03-20T09:20:05.381Z,25.00
2023-03-20T09:22:33.815Z,28.73
2023-03-20T09:25:00.958Z,26.53
2023-03-20T09:27:28.402Z,25.70
2023-03-20T09:29:55.581Z,26.57
2023-03-20T09:32:22.652Z,32.13
2023-03-20T09:34:49.815Z,21.43
2023-03-20T09:37:16.892Z,25.27
2023-03-20T09:39:44.338Z,25.13
2023-03-20T09:42:57.234Z,27.33
2023-03-20T09:46:08.511Z,26.87
2023-03-20T09:49:19.299Z,22.50
2023-03-20T09:52:01.450Z,20.90
2023-03-20T09:54:54.067Z,24.70
2023-03-20T09:57:32.352Z,24.60
2023-03-20T10:00:10.373Z,20.30
2023-03-20T10:03:15.465Z,20.97
2023-03-20T10:05:56.076Z,20.43
2023-03-20T10:08:39.159Z,25.30
2023-03-20T10:12:01.070Z,23.07
2023-03-20T10:15:08.103Z,19.87
2023-03-20T10:18:27.767Z,20.17
2023-03-20T10:21:44.786Z,24.53
2023-03-20T10:24:36.260Z,22.60
2023-03-20T10:27:28.367Z,18.30
2023-03-20T10:30:19.243Z,19.70
2023-03-20T10:33:32.551Z,21.27
2023-03-20T10:36:36.153Z,18.57
2023-03-20T10:39:51.791Z,16.77
2023-03-20T10:42:28.878Z,18.60
2023-03-20T10:45:05.660Z,19.47
2023-03-20T10:47:39.680Z,19.87
2023-03-20T10:50:17.841Z,18.77
2023-03-20T10:52:52.130Z,17.20
2023-03-20T10:55:28.236Z,18.97
2023-03-20T10:58:22.831Z,17.23
2023-03-20T11:00:51.397Z,14.57
2023-03-20T11:03:30.500Z,13.37
2023-03-20T11:06:16.066Z,18.73
2023-03-20T11:08:51.303Z,14.47
2023-03-20T11:11:34.167Z,15.33
2023-03-20T11:14:21.416Z,16.27
2023-03-20T11:16:55.979Z,13.73
2023-03-20T11:19:24.950Z,15.17
2023-03-20T11:21:57.255Z,13.67
2023-03-20T11:24:47.297Z,13.93
2023-03-20T11:27:28.566Z,16.67
2023-03-20T11:29:57.603Z,13.53
2023-03-20T11:32:41.936Z,12.30
2023-03-20T11:35:31.593Z,11.27
2023-03-20T11:38:21.609Z,11.50
2023-03-20T11:40:54.580Z,11.57
2023-03-20T11:43:28.759Z,11.80
2023-03-20T11:46:00.790Z,15.17
2023-03-20T11:48:45.841Z,10.80
2023-03-20T11:51:21.438Z,10.47
2023-03-20T11:53:48.425Z,10.13
2023-03-20T11:56:29.218Z,14.33
2023-03-20T11:59:18.526Z,13.30
2023-03-20T12:01:52.391Z,11.13
2023-03-20T12:04:27.336Z,14.23
2023-03-20T12:06:58.960Z,10.63
2023-03-20T12:09:46.552Z,13.73
2023-03-20T12:12:48.384Z,13.30
2023-03-20T12:15:41.495Z,12.93
2023-03-20T12:18:50.212Z,16.00
2023-03-20T12:21:48.332Z,12.57
2023-03-20T12:24:49.695Z,14.60
2023-03-20T12:27:49.033Z,12.97
2023-03-20T12:31:24.267Z,14.57
2023-03-20T12:34:01.259Z,14.23
2023-03-20T12:36:44.377Z,11.87
2023-03-20T12:39:35.314Z,13.53
2023-03-20T12:42:43.169Z,15.20
2023-03-20T12:45:23.681Z,14.20
2023-03-20T12:48:19.735Z,17.83
2023-03-20T12:51:52.495Z,13.30
2023-03-20T12:54:56.786Z,19.47
2023-03-20T12:57:45.576Z,16.07
2023-03-20T13:00:30.922Z,29.97
2023-03-20T13:03:47.518Z,19.00
2023-03-20T13:06:51.099Z,16.27
2023-03-20T13:09:52.874Z,16.23
2023-03-20T13:13:05.537Z,20.70
2023-03-20T13:15:55.636Z,17.70
2023-03-20T13:19:13.310Z,18.67
2023-03-20T13:21:46.696Z,18.97
2023-03-20T13:24:56.769Z,15.97
2023-03-20T13:28:20.614Z,27.17
2023-03-20T13:32:00.621Z,19.03
2023-03-20T13:35:25.721Z,17.77
2023-03-20T13:38:06.379Z,15.70
2023-03-20T13:40:46.239Z,14.67
2023-03-20T13:43:54.226Z,14.93
2023-03-20T13:46:46.711Z,18.57
2023-03-20T13:49:37.606Z,19.60
2023-03-20T13:52:40.548Z,18.23
2023-03-20T13:55:44.522Z,17.90
2023-03-20T13:58:59.015Z,16.97
2023-03-20T14:02:07.752Z,19.17
2023-03-20T14:04:35.622Z,17.93
2023-03-20T14:07:03.062Z,17.17
2023-03-20T14:09:37.266Z,15.80
2023-03-20T14:12:12.519Z,20.27
2023-03-20T14:15:01.005Z,14.03
2023-03-20T14:17:31.465Z,16.37
2023-03-20T14:20:24.382Z,21.20
2023-03-20T14:22:52.159Z,17.40
2023-03-20T14:25:23.833Z,19.00
2023-03-20T14:28:01.000Z,18.10
2023-03-20T14:30:31.266Z,17.63
2023-03-20T14:33:21.783Z,19.33
2023-03-20T14:36:26.378Z,15.43
2023-03-20T14:39:30.334Z,19.07
2023-03-20T14:42:37.314Z,17.87
2023-03-20T14:45:13.872Z,18.60
2023-03-20T14:48:23.525Z,24.47
2023-03-20T14:51:06.666Z,26.27
2023-03-20T14:53:34.220Z,17.07
2023-03-20T14:56:15.524Z,15.83
2023-03-20T14:58:55.996Z,16.80
2023-03-20T15:01:23.090Z,22.13
2023-03-20T15:03:59.113Z,19.27
2023-03-20T15:06:29.249Z,19.37
2023-03-20T15:09:10.731Z,20.10
2023-03-20T15:11:38.774Z,24.23
2023-03-20T15:14:08.755Z,16.13
2023-03-20T15:16:38.432Z,21.37
2023-03-20T15:19:22.053Z,24.10
2023-03-20T15:21:50.065Z,18.40
2023-03-20T15:24:30.477Z,20.50
2023-03-20T15:27:02.554Z,20.87
2023-03-20T15:29:32.557Z,25.30
2023-03-20T15:32:17.105Z,26.90
2023-03-20T15:34:47.520Z,32.53
2023-03-20T15:37:23.505Z,20.57
2023-03-20T15:39:56.231Z,18.60
2023-03-20T15:42:26.147Z,20.40
2023-03-20T15:44:56.383Z,26.37
2023-03-20T15:47:26.251Z,21.17
2023-03-20T15:50:00.707Z,20.53
2023-03-20T15:52:43.143Z,18.17
2023-03-20T15:55:20.081Z,21.60
2023-03-20T15:57:50.307Z,19.23
2023-03-20T16:00:35.238Z,17.77
2023-03-20T16:03:08.696Z,22.03
2023-03-20T16:05:36.490Z,20.90
2023-03-20T16:08:27.598Z,21.20
2023-03-20T16:11:14.818Z,25.17
2023-03-20T16:13:48.547Z,19.13
2023-03-20T16:16:24.639Z,19.97
2023-03-20T16:18:52.159Z,16.53
2023-03-20T16:21:27.765Z,22.13
2023-03-20T16:23:59.453Z,21.10
2023-03-20T16:26:27.929Z,18.90
2023-03-20T16:29:04.265Z,20.43
2023-03-20T16:31:42.290Z,22.90
2023-03-20T16:34:20.888Z,23.70
2023-03-20T16:36:58.269Z,19.00
2023-03-20T16:39:30.758Z,18.07
2023-03-20T16:42:08.384Z,26.70
2023-03-20T16:44:37.227Z,21.83
2023-03-20T16:47:33.108Z,18.27
2023-03-20T16:50:23.293Z,21.53
2023-03-20T16:52:58.793Z,18.17
2023-03-20T16:55:44.045Z,18.23
2023-03-20T16:58:27.779Z,23.00
2023-03-20T17:01:15.163Z,16.20
2023-03-20T17:04:11.616Z,21.73
2023-03-20T17:06:54.385Z,17.93
2023-03-20T17:09:31.437Z,20.27
2023-03-20T17:12:16.271Z,18.97
2023-03-20T17:14:45.571Z,18.17
2023-03-20T17:17:22.183Z,17.53
2023-03-20T17:19:50.406Z,20.30
2023-03-20T17:22:25.356Z,20.20
2023-03-20T17:24:53.206Z,16.90
2023-03-20T17:27:21.365Z,16.80
2023-03-20T17:29:49.753Z,23.50
2023-03-20T17:32:23.835Z,17.50
2023-03-20T17:34:51.612Z,20.73
2023-03-20T17:37:30.278Z,18.80
2023-03-20T17:39:58.244Z,24.20
2023-03-20T17:42:31.518Z,24.10
2023-03-20T17:45:03.450Z,22.40
2023-03-20T17:47:31.323Z,18.20
2023-03-20T17:49:58.847Z,18.53
2023-03-20T17:52:28.772Z,16.00
2023-03-20T17:54:56.472Z,21.90
2023-03-20T17:57:36.578Z,19.07
2023-03-20T18:00:13.308Z,17.60
2023-03-20T18:02:40.789Z,18.80
2023-03-20T18:05:08.987Z,18.50
2023-03-20T18:07:36.681Z,20.00
2023-03-20T18:10:40.615Z,22.23
2023-03-20T18:13:07.976Z,18.90
2023-03-20T18:15:35.388Z,19.37
2023-03-20T18:18:02.662Z,22.10
2023-03-20T18:20:33.484Z,18.83
2023-03-20T18:23:00.792Z,23.83
2023-03-20T18:25:28.458Z,21.53
2023-03-20T18:27:58.998Z,19.67
2023-03-20T18:30:35.120Z,20.93
2023-03-20T18:33:03.143Z,19.67
2023-03-20T18:35:30.771Z,16.60
2023-03-20T18:37:58.932Z,19.13
2023-03-20T18:40:37.205Z,19.30
2023-03-20T18:43:04.884Z,22.07
2023-03-20T18:45:32.729Z,22.47
2023-03-20T18:48:03.790Z,19.57
2023-03-20T18:50:38.491Z,17.70
2023-03-20T18:53:07.913Z,20.90
2023-03-20T18:55:36.760Z,19.10
2023-03-20T18:58:06.528Z,20.23
2023-03-20T19:00:40.639Z,20.53
2023-03-20T19:03:10.619Z,22.03
2023-03-20T19:05:38.386Z,21.17
2023-03-20T19:08:06.640Z,19.23
2023-03-20T19:10:43.813Z,21.27
2023-03-20T19:13:21.128Z,23.20
2023-03-20T19:15:48.417Z,23.93
2023-03-20T19:18:20.024Z,25.20
2023-03-20T19:20:55.695Z,23.53
2023-03-20T19:23:27.212Z,23.43
2023-03-20T19:25:55.239Z,22.57
2023-03-20T19:28:39.244Z,23.17
2023-03-20T19:31:09.231Z,20.37
2023-03-20T19:33:38.740Z,22.67
2023-03-20T19:36:08.855Z,23.30
2023-03-20T19:38:37.335Z,23.23
2023-03-20T19:41:04.783Z,27.17
2023-03-20T19:43:32.340Z,23.17
2023-03-20T19:46:00.208Z,23.93
2023-03-20T19:48:46.129Z,19.67
2023-03-20T19:51:25.521Z,20.27
2023-03-20T19:53:54.240Z,23.43
2023-03-20T19:56:23.560Z,22.57
2023-03-20T19:58:51.302Z,21.67
2023-03-20T20:01:23.859Z,18.77
2023-03-20T20:03:57.422Z,20.83
2023-03-20T20:06:31.238Z,20.53
2023-03-20T20:09:01.489Z,18.03
2023-03-20T20:11:29.201Z,18.60
2023-03-20T20:16:45.341Z,19.20
2023-03-20T20:19:12.926Z,20.03
2023-03-20T20:24:27.744Z,16.10
2023-03-20T20:27:15.261Z,12.83
2023-03-20T20:29:47.775Z,17.07
2023-03-20T20:32:16.170Z,17.80
2023-03-20T20:40:21.000Z,17.87
2023-03-20T20:42:51.547Z,15.87
2023-03-20T20:45:20.948Z,16.23
2023-03-20T20:47:49.264Z,21.10
2023-03-20T20:50:21.995Z,13.73
2023-03-20T20:52:50.115Z,14.67
2023-03-20T20:55:23.109Z,13.33
2023-03-20T20:57:55.415Z,14.27
2023-03-20T21:00:37.260Z,14.47
2023-03-20T21:03:08.716Z,12.97
2023-03-20T21:05:37.495Z,12.27
2023-03-20T21:08:04.771Z,11.80
2023-03-20T21:10:31.825Z,11.77
2023-03-20T21:12:59.981Z,7.67
2023-03-20T21:15:30.475Z,11.13
2023-03-20T21:18:01.421Z,10.90
2023-03-20T21:20:31.391Z,9.17
2023-03-20T21:22:58.908Z,10.13
2023-03-20T21:25:39.184Z,11.37
2023-03-20T21:28:09.746Z,10.23
2023-03-20T21:30:44.178Z,11.47
2023-03-20T21:33:18.095Z,11.73
2023-03-20T21:35:47.533Z,12.43
2023-03-20T21:41:11.581Z,14.57
2023-03-20T21:43:39.521Z,11.30
2023-03-20T21:46:42.328Z,14.73
2023-03-20T21:55:04.184Z,17.37
2023-03-20T22:02:58.928Z,14.80
2023-03-20T22:06:31.830Z,14.63
2023-03-20T22:09:13.872Z,15.13
2023-03-20T22:23:07.556Z,19.83
2023-03-20T22:28:36.700Z,20.30
2023-03-20T22:31:26.887Z,21.73
2023-03-20T22:37:23.155Z,21.27
2023-03-20T22:39:45.801Z,18.27
2023-03-20T22:42:35.262Z,20.67
2023-03-20T22:44:59.240Z,20.77
2023-03-20T22:47:26.662Z,22.37
2023-03-20T22:49:53.788Z,20.40
2023-03-20T22:52:31.674Z,24.53
2023-03-20T22:54:59.625Z,19.13
2023-03-20T22:57:40.220Z,20.80
2023-03-20T23:00:12.406Z,17.70
2023-03-20T23:02:39.639Z,16.20
2023-03-20T23:05:08.085Z,19.07
2023-03-20T23:07:37.160Z,15.23
2023-03-20T23:10:06.185Z,19.90
2023-03-20T23:12:33.402Z,18.33
2023-03-20T23:15:00.527Z,15.77
2023-03-20T23:17:27.648Z,16.03
2023-03-20T23:20:08.725Z,17.30
2023-03-20T23:22:38.544Z,16.17
2023-03-20T23:25:16.489Z,16.13
2023-03-20T23:27:51.316Z,14.37
2023-03-20T23:30:19.793Z,16.47
2023-03-20T23:32:47.024Z,15.17
2023-03-20T23:35:14.155Z,13.10
2023-03-20T23:37:41.371Z,13.77
2023-03-20T23:40:09.754Z,15.87
2023-03-20T23:42:36.922Z,17.27
2023-03-20T23:45:19.142Z,14.80
2023-03-20T23:47:48.199Z,13.37
2023-03-20T23:50:27.694Z,14.63
2023-03-20T23:53:13.215Z,15.27
2023-03-20T23:55:48.783Z,13.03
2023-03-20T23:58:16.834Z,12.53
